This is the latest recevied weather packets stored in our database for station/object KD4WLE. If no packets are shown the sender has not sent any weather packets the latest 1 day(s).
| Time | Temp. | Humidity | Pressure | Rain* | Wind** | Luminosity | Snow |
|---|---|---|---|---|---|---|---|
| 1778012669 | 27.22° C | 54% | 1016.5 hPa | 0 mm | 1.79 m/s, 270° | 507 W/m² | - |
| 1778012366 | 27.22° C | 53% | 1016.3 hPa | 0 mm | 1.79 m/s, 283° | 556 W/m² | - |
| 1778012062 | 27.22° C | 52% | 1016.5 hPa | 0 mm | 0.89 m/s, 253° | 526 W/m² | - |
| 1778011761 | 27.22° C | 54% | 1016.6 hPa | 0 mm | 3.13 m/s, 271° | 564 W/m² | - |
| 1778011458 | 27.22° C | 53% | 1016.5 hPa | 0 mm | 2.68 m/s, 289° | 568 W/m² | - |
| 1778011153 | 27.22° C | 52% | 1016.5 hPa | 0 mm | 1.79 m/s, 308° | 570 W/m² | - |
| 1778010851 | 27.22° C | 51% | 1016.5 hPa | 0 mm | 1.79 m/s, 240° | 564 W/m² | - |
| 1778010548 | 27.78° C | 50% | 1016.6 hPa | 0 mm | 2.24 m/s, 239° | 608 W/m² | - |
| 1778010246 | 27.22° C | 51% | 1016.6 hPa | 0 mm | 2.68 m/s, 287° | 639 W/m² | - |
| 1778009945 | 27.22° C | 53% | 1016.6 hPa | 0 mm | 1.34 m/s, 250° | 636 W/m² | - |
| 1778009643 | 27.22° C | 53% | 1016.6 hPa | 0 mm | 1.34 m/s, 258° | 612 W/m² | - |
| 1778009341 | 27.78° C | 51% | 1016.8 hPa | 0 mm | 3.13 m/s, 291° | 676 W/m² | - |
| 1778009039 | 27.78° C | 52% | 1016.7 hPa | 0 mm | 0.89 m/s, 287° | 670 W/m² | - |
| 1778008736 | 27.78° C | 49% | 1016.7 hPa | 0 mm | 0.89 m/s, 294° | 661 W/m² | - |
| 1778008434 | 27.22° C | 52% | 1016.7 hPa | 0 mm | 1.79 m/s, 240° | 724 W/m² | - |
| 1778008131 | 27.78° C | 52% | 1017 hPa | 0 mm | 0.89 m/s, 268° | 717 W/m² | - |
| 1778007827 | 27.78° C | 52% | 1016.9 hPa | 0 mm | 1.34 m/s, 272° | 726 W/m² | - |
| 1778007522 | 27.78° C | 53% | 1016.8 hPa | 0 mm | 1.34 m/s, 258° | 737 W/m² | - |
| 1778007219 | 27.22° C | 54% | 1016.8 hPa | 0 mm | 1.79 m/s, 346° | 744 W/m² | - |
| 1778006915 | 28.33° C | 49% | 1016.8 hPa | 0 mm | 0.89 m/s, 303° | 752 W/m² | - |
| 1778006612 | 27.78° C | 53% | 1017 hPa | 0 mm | 1.79 m/s, 287° | 761 W/m² | - |
| 1778006309 | 27.78° C | 52% | 1017 hPa | 0 mm | 1.79 m/s, 293° | 778 W/m² | - |
| 1778006006 | 27.22° C | 55% | 1016.9 hPa | 0 mm | 0.89 m/s, 224° | 785 W/m² | - |
| 1778005703 | 26.67° C | 55% | 1017.3 hPa | 0 mm | 1.34 m/s, 278° | 305 W/m² | - |
| 1778005400 | 27.78° C | 54% | 1017.4 hPa | 0 mm | 1.79 m/s, 300° | 435 W/m² | - |
* Rain latest hour (hover to see other rain measurements)
** Current wind speed in m/s (hover to see current wind gust speed)